IAS weather

Iaşi Airport
Iaşi, Iaşi, Romania

Public forecast

Using degrees Celsius for public forecast. Weather courtesy of forecast.io.

METAR (pilot weather report)

Retrieved 2019/08/19 19:30 UTC (28 minutes ago):

LRIA 191930Z VRB01KT CAVOK 21/10 Q1019

TAF (pilot weather forecast)

Forecast is more than 12 hours old.

Closest forecast is Bacău Airport, 49.0 nm (90.8 km) SW. Retrieved 2010/08/31 20:30 UTC (9 years ago):

TAF LRBC 312030Z 3121/0203 CNL